sensor_id;sensor_type;location;lat;lon;timestamp;P1;durP1;ratioP1;P2;durP2;ratioP2
25962;SDS011;13760;52.588;13.406;2023-05-21T00:00:58;21.98;;;16.50;;
25962;SDS011;13760;52.588;13.406;2023-05-21T00:03:24;20.42;;;17.27;;
25962;SDS011;13760;52.588;13.406;2023-05-21T00:05:52;20.13;;;16.90;;
25962;SDS011;13760;52.588;13.406;2023-05-21T00:08:18;19.63;;;16.27;;
25962;SDS011;13760;52.588;13.406;2023-05-21T00:10:44;20.77;;;16.95;;
25962;SDS011;13760;52.588;13.406;2023-05-21T00:13:09;19.92;;;17.00;;
25962;SDS011;13760;52.588;13.406;2023-05-21T00:15:35;22.42;;;17.25;;
25962;SDS011;13760;52.588;13.406;2023-05-21T00:18:01;20.02;;;16.40;;
25962;SDS011;13760;52.588;13.406;2023-05-21T00:20:27;20.05;;;17.33;;
25962;SDS011;13760;52.588;13.406;2023-05-21T00:22:56;18.95;;;16.02;;
25962;SDS011;13760;52.588;13.406;2023-05-21T00:25:22;19.38;;;17.33;;
25962;SDS011;13760;52.588;13.406;2023-05-21T00:27:47;21.02;;;17.67;;
25962;SDS011;13760;52.588;13.406;2023-05-21T00:30:13;19.63;;;17.15;;
25962;SDS011;13760;52.588;13.406;2023-05-21T00:32:40;22.15;;;17.40;;
25962;SDS011;13760;52.588;13.406;2023-05-21T00:35:06;22.90;;;17.45;;
25962;SDS011;13760;52.588;13.406;2023-05-21T00:37:31;21.25;;;17.92;;
25962;SDS011;13760;52.588;13.406;2023-05-21T00:39:58;22.20;;;17.67;;
25962;SDS011;13760;52.588;13.406;2023-05-21T00:42:25;19.08;;;17.00;;
25962;SDS011;13760;52.588;13.406;2023-05-21T00:44:52;22.80;;;17.00;;
25962;SDS011;13760;52.588;13.406;2023-05-21T00:47:18;19.05;;;15.95;;
25962;SDS011;13760;52.588;13.406;2023-05-21T00:49:47;21.65;;;17.60;;
25962;SDS011;13760;52.588;13.406;2023-05-21T00:52:15;20.27;;;18.02;;
25962;SDS011;13760;52.588;13.406;2023-05-21T00:54:44;22.17;;;16.55;;
25962;SDS011;13760;52.588;13.406;2023-05-21T00:57:11;21.08;;;18.50;;
25962;SDS011;13760;52.588;13.406;2023-05-21T00:59:37;21.48;;;16.38;;
25962;SDS011;13760;52.588;13.406;2023-05-21T01:02:03;22.33;;;18.45;;
25962;SDS011;13760;52.588;13.406;2023-05-21T01:04:30;23.50;;;17.58;;
25962;SDS011;13760;52.588;13.406;2023-05-21T01:06:56;22.00;;;17.40;;
25962;SDS011;13760;52.588;13.406;2023-05-21T01:09:23;21.27;;;16.88;;
25962;SDS011;13760;52.588;13.406;2023-05-21T01:11:49;22.80;;;18.10;;
25962;SDS011;13760;52.588;13.406;2023-05-21T01:14:16;23.77;;;18.38;;
25962;SDS011;13760;52.588;13.406;2023-05-21T01:16:43;20.70;;;17.33;;
25962;SDS011;13760;52.588;13.406;2023-05-21T01:19:13;23.65;;;17.73;;
25962;SDS011;13760;52.588;13.406;2023-05-21T01:21:41;24.10;;;18.52;;
25962;SDS011;13760;52.588;13.406;2023-05-21T01:24:20;23.17;;;18.00;;
25962;SDS011;13760;52.588;13.406;2023-05-21T01:26:46;22.13;;;19.10;;
25962;SDS011;13760;52.588;13.406;2023-05-21T01:29:12;21.58;;;18.80;;
25962;SDS011;13760;52.588;13.406;2023-05-21T01:31:44;24.27;;;19.67;;
25962;SDS011;13760;52.588;13.406;2023-05-21T01:34:21;21.92;;;19.13;;
25962;SDS011;13760;52.588;13.406;2023-05-21T01:37:02;22.75;;;19.42;;
25962;SDS011;13760;52.588;13.406;2023-05-21T01:39:37;22.33;;;19.83;;
25962;SDS011;13760;52.588;13.406;2023-05-21T01:42:07;21.20;;;18.60;;
25962;SDS011;13760;52.588;13.406;2023-05-21T01:44:34;24.05;;;18.85;;
25962;SDS011;13760;52.588;13.406;2023-05-21T01:47:01;26.35;;;20.02;;
25962;SDS011;13760;52.588;13.406;2023-05-21T01:49:28;24.02;;;19.15;;
25962;SDS011;13760;52.588;13.406;2023-05-21T01:51:54;24.00;;;20.13;;
25962;SDS011;13760;52.588;13.406;2023-05-21T01:54:20;23.40;;;18.38;;
25962;SDS011;13760;52.588;13.406;2023-05-21T01:56:46;22.73;;;19.10;;
25962;SDS011;13760;52.588;13.406;2023-05-21T01:59:11;24.48;;;20.13;;
25962;SDS011;13760;52.588;13.406;2023-05-21T02:01:37;23.58;;;20.15;;
25962;SDS011;13760;52.588;13.406;2023-05-21T02:04:03;25.08;;;20.05;;
25962;SDS011;13760;52.588;13.406;2023-05-21T02:06:28;23.45;;;19.70;;
25962;SDS011;13760;52.588;13.406;2023-05-21T02:08:55;23.17;;;19.35;;
25962;SDS011;13760;52.588;13.406;2023-05-21T02:11:21;24.80;;;19.88;;
25962;SDS011;13760;52.588;13.406;2023-05-21T02:13:47;26.15;;;20.80;;
25962;SDS011;13760;52.588;13.406;2023-05-21T02:16:12;25.60;;;20.98;;
25962;SDS011;13760;52.588;13.406;2023-05-21T02:18:40;23.73;;;20.58;;
25962;SDS011;13760;52.588;13.406;2023-05-21T02:21:07;23.20;;;20.70;;
25962;SDS011;13760;52.588;13.406;2023-05-21T02:23:35;25.50;;;21.05;;
25962;SDS011;13760;52.588;13.406;2023-05-21T02:26:01;26.80;;;21.95;;
25962;SDS011;13760;52.588;13.406;2023-05-21T02:28:26;27.05;;;21.67;;
25962;SDS011;13760;52.588;13.406;2023-05-21T02:30:53;27.42;;;21.45;;
25962;SDS011;13760;52.588;13.406;2023-05-21T02:33:19;24.17;;;20.88;;
25962;SDS011;13760;52.588;13.406;2023-05-21T02:35:45;30.17;;;23.33;;
25962;SDS011;13760;52.588;13.406;2023-05-21T02:38:11;27.60;;;21.75;;
25962;SDS011;13760;52.588;13.406;2023-05-21T02:40:37;25.88;;;21.65;;
25962;SDS011;13760;52.588;13.406;2023-05-21T02:43:03;27.90;;;21.60;;
25962;SDS011;13760;52.588;13.406;2023-05-21T02:45:29;28.42;;;22.63;;
25962;SDS011;13760;52.588;13.406;2023-05-21T02:47:55;26.80;;;22.95;;
25962;SDS011;13760;52.588;13.406;2023-05-21T02:50:20;26.92;;;21.92;;
25962;SDS011;13760;52.588;13.406;2023-05-21T02:52:46;28.42;;;21.75;;
25962;SDS011;13760;52.588;13.406;2023-05-21T02:55:12;31.95;;;23.58;;
25962;SDS011;13760;52.588;13.406;2023-05-21T02:57:38;28.65;;;23.38;;
25962;SDS011;13760;52.588;13.406;2023-05-21T03:00:03;30.45;;;24.45;;
25962;SDS011;13760;52.588;13.406;2023-05-21T03:02:33;27.58;;;24.52;;
25962;SDS011;13760;52.588;13.406;2023-05-21T03:04:59;30.67;;;25.40;;
25962;SDS011;13760;52.588;13.406;2023-05-21T03:07:24;30.08;;;24.95;;
25962;SDS011;13760;52.588;13.406;2023-05-21T03:09:50;31.42;;;25.75;;
25962;SDS011;13760;52.588;13.406;2023-05-21T03:12:16;31.58;;;26.20;;
25962;SDS011;13760;52.588;13.406;2023-05-21T03:14:41;35.83;;;26.65;;
25962;SDS011;13760;52.588;13.406;2023-05-21T03:17:08;31.45;;;25.52;;
25962;SDS011;13760;52.588;13.406;2023-05-21T03:19:37;31.42;;;25.58;;
25962;SDS011;13760;52.588;13.406;2023-05-21T03:22:05;28.98;;;24.42;;
25962;SDS011;13760;52.588;13.406;2023-05-21T03:24:31;37.53;;;27.00;;
25962;SDS011;13760;52.588;13.406;2023-05-21T03:26:57;29.23;;;25.88;;
25962;SDS011;13760;52.588;13.406;2023-05-21T03:29:25;32.33;;;26.25;;
25962;SDS011;13760;52.588;13.406;2023-05-21T03:31:51;30.83;;;24.17;;
25962;SDS011;13760;52.588;13.406;2023-05-21T03:34:17;31.98;;;26.38;;
25962;SDS011;13760;52.588;13.406;2023-05-21T03:36:44;29.58;;;25.50;;
25962;SDS011;13760;52.588;13.406;2023-05-21T03:39:10;30.08;;;26.50;;
25962;SDS011;13760;52.588;13.406;2023-05-21T03:41:36;32.35;;;26.00;;
25962;SDS011;13760;52.588;13.406;2023-05-21T03:44:01;33.28;;;27.75;;
25962;SDS011;13760;52.588;13.406;2023-05-21T03:46:27;32.47;;;26.10;;
25962;SDS011;13760;52.588;13.406;2023-05-21T03:48:52;31.55;;;26.90;;
25962;SDS011;13760;52.588;13.406;2023-05-21T03:51:18;30.52;;;27.23;;
25962;SDS011;13760;52.588;13.406;2023-05-21T03:53:44;28.05;;;24.95;;
25962;SDS011;13760;52.588;13.406;2023-05-21T03:56:10;32.60;;;26.75;;
25962;SDS011;13760;52.588;13.406;2023-05-21T03:58:35;32.28;;;26.38;;
25962;SDS011;13760;52.588;13.406;2023-05-21T04:01:01;30.10;;;25.20;;
25962;SDS011;13760;52.588;13.406;2023-05-21T04:03:28;31.48;;;26.30;;
25962;SDS011;13760;52.588;13.406;2023-05-21T04:05:54;29.80;;;25.70;;
25962;SDS011;13760;52.588;13.406;2023-05-21T04:08:20;34.53;;;26.58;;
25962;SDS011;13760;52.588;13.406;2023-05-21T04:10:45;32.35;;;25.73;;
25962;SDS011;13760;52.588;13.406;2023-05-21T04:13:11;29.95;;;26.30;;
25962;SDS011;13760;52.588;13.406;2023-05-21T04:15:37;30.25;;;26.50;;
25962;SDS011;13760;52.588;13.406;2023-05-21T04:18:02;31.17;;;26.98;;
25962;SDS011;13760;52.588;13.406;2023-05-21T04:20:29;31.95;;;26.45;;
25962;SDS011;13760;52.588;13.406;2023-05-21T04:22:54;33.15;;;25.73;;
25962;SDS011;13760;52.588;13.406;2023-05-21T04:25:20;29.20;;;26.10;;
25962;SDS011;13760;52.588;13.406;2023-05-21T04:27:47;30.77;;;25.83;;
25962;SDS011;13760;52.588;13.406;2023-05-21T04:30:13;32.67;;;27.15;;
25962;SDS011;13760;52.588;13.406;2023-05-21T04:32:39;30.65;;;25.83;;
25962;SDS011;13760;52.588;13.406;2023-05-21T04:35:05;32.20;;;25.05;;
25962;SDS011;13760;52.588;13.406;2023-05-21T04:37:31;30.80;;;25.70;;
25962;SDS011;13760;52.588;13.406;2023-05-21T04:39:59;29.00;;;25.20;;
25962;SDS011;13760;52.588;13.406;2023-05-21T04:42:25;32.13;;;27.10;;
25962;SDS011;13760;52.588;13.406;2023-05-21T04:44:51;33.83;;;26.00;;
25962;SDS011;13760;52.588;13.406;2023-05-21T04:47:19;27.77;;;24.30;;
25962;SDS011;13760;52.588;13.406;2023-05-21T04:49:45;27.33;;;23.65;;
25962;SDS011;13760;52.588;13.406;2023-05-21T04:52:14;30.55;;;27.20;;
25962;SDS011;13760;52.588;13.406;2023-05-21T04:54:40;31.20;;;24.60;;
25962;SDS011;13760;52.588;13.406;2023-05-21T04:57:06;28.77;;;25.58;;
25962;SDS011;13760;52.588;13.406;2023-05-21T04:59:32;29.27;;;24.33;;
25962;SDS011;13760;52.588;13.406;2023-05-21T05:01:58;27.88;;;24.88;;
25962;SDS011;13760;52.588;13.406;2023-05-21T05:04:24;27.25;;;24.25;;
25962;SDS011;13760;52.588;13.406;2023-05-21T05:06:49;32.85;;;25.42;;
25962;SDS011;13760;52.588;13.406;2023-05-21T05:09:15;29.60;;;24.65;;
25962;SDS011;13760;52.588;13.406;2023-05-21T05:11:41;29.00;;;24.30;;
25962;SDS011;13760;52.588;13.406;2023-05-21T05:14:06;29.05;;;24.42;;
25962;SDS011;13760;52.588;13.406;2023-05-21T05:16:32;32.78;;;23.95;;
25962;SDS011;13760;52.588;13.406;2023-05-21T05:18:58;25.80;;;22.67;;
25962;SDS011;13760;52.588;13.406;2023-05-21T05:21:23;29.27;;;24.55;;
25962;SDS011;13760;52.588;13.406;2023-05-21T05:23:49;31.77;;;24.80;;
25962;SDS011;13760;52.588;13.406;2023-05-21T05:26:14;28.13;;;23.92;;
25962;SDS011;13760;52.588;13.406;2023-05-21T05:28:40;26.60;;;22.83;;
25962;SDS011;13760;52.588;13.406;2023-05-21T05:31:05;28.15;;;22.30;;
25962;SDS011;13760;52.588;13.406;2023-05-21T05:33:31;32.72;;;25.02;;
25962;SDS011;13760;52.588;13.406;2023-05-21T05:35:56;28.35;;;22.98;;
25962;SDS011;13760;52.588;13.406;2023-05-21T05:38:22;27.90;;;23.95;;
25962;SDS011;13760;52.588;13.406;2023-05-21T05:40:48;26.23;;;22.48;;
25962;SDS011;13760;52.588;13.406;2023-05-21T05:43:13;23.45;;;20.67;;
25962;SDS011;13760;52.588;13.406;2023-05-21T05:45:39;28.23;;;23.85;;
25962;SDS011;13760;52.588;13.406;2023-05-21T05:48:04;26.40;;;21.40;;
25962;SDS011;13760;52.588;13.406;2023-05-21T05:50:30;24.00;;;20.13;;
25962;SDS011;13760;52.588;13.406;2023-05-21T05:52:56;24.83;;;21.00;;
25962;SDS011;13760;52.588;13.406;2023-05-21T05:55:22;24.48;;;21.45;;
25962;SDS011;13760;52.588;13.406;2023-05-21T05:57:49;25.20;;;21.58;;
25962;SDS011;13760;52.588;13.406;2023-05-21T06:00:14;23.27;;;20.60;;
25962;SDS011;13760;52.588;13.406;2023-05-21T06:02:41;22.92;;;20.45;;
25962;SDS011;13760;52.588;13.406;2023-05-21T06:05:06;23.58;;;20.00;;
25962;SDS011;13760;52.588;13.406;2023-05-21T06:07:33;24.23;;;19.52;;
25962;SDS011;13760;52.588;13.406;2023-05-21T06:10:01;24.17;;;20.88;;
25962;SDS011;13760;52.588;13.406;2023-05-21T06:12:26;25.17;;;20.70;;
25962;SDS011;13760;52.588;13.406;2023-05-21T06:14:52;26.15;;;19.23;;
25962;SDS011;13760;52.588;13.406;2023-05-21T06:17:17;25.25;;;19.27;;
25962;SDS011;13760;52.588;13.406;2023-05-21T06:19:43;20.63;;;18.05;;
25962;SDS011;13760;52.588;13.406;2023-05-21T06:22:09;23.05;;;19.35;;
25962;SDS011;13760;52.588;13.406;2023-05-21T06:24:35;22.15;;;19.15;;
25962;SDS011;13760;52.588;13.406;2023-05-21T06:27:00;21.33;;;18.05;;
25962;SDS011;13760;52.588;13.406;2023-05-21T06:29:27;22.05;;;19.63;;
25962;SDS011;13760;52.588;13.406;2023-05-21T06:31:53;23.60;;;18.67;;
25962;SDS011;13760;52.588;13.406;2023-05-21T06:34:18;20.63;;;17.90;;
25962;SDS011;13760;52.588;13.406;2023-05-21T06:36:44;21.98;;;17.90;;
25962;SDS011;13760;52.588;13.406;2023-05-21T06:39:09;24.50;;;18.70;;
25962;SDS011;13760;52.588;13.406;2023-05-21T06:41:35;20.73;;;17.92;;
25962;SDS011;13760;52.588;13.406;2023-05-21T06:44:00;22.63;;;18.35;;
25962;SDS011;13760;52.588;13.406;2023-05-21T06:46:26;24.73;;;19.05;;
25962;SDS011;13760;52.588;13.406;2023-05-21T06:48:51;22.65;;;18.13;;
25962;SDS011;13760;52.588;13.406;2023-05-21T06:51:17;18.60;;;16.60;;
25962;SDS011;13760;52.588;13.406;2023-05-21T06:53:43;18.23;;;16.33;;
25962;SDS011;13760;52.588;13.406;2023-05-21T06:56:08;20.15;;;17.13;;
25962;SDS011;13760;52.588;13.406;2023-05-21T06:58:34;24.48;;;16.80;;
25962;SDS011;13760;52.588;13.406;2023-05-21T07:00:59;20.98;;;17.00;;
25962;SDS011;13760;52.588;13.406;2023-05-21T07:03:25;20.88;;;16.30;;
25962;SDS011;13760;52.588;13.406;2023-05-21T07:05:51;20.02;;;16.60;;
25962;SDS011;13760;52.588;13.406;2023-05-21T07:08:20;23.30;;;16.52;;
25962;SDS011;13760;52.588;13.406;2023-05-21T07:10:45;19.63;;;16.35;;
25962;SDS011;13760;52.588;13.406;2023-05-21T07:13:11;21.00;;;16.20;;
25962;SDS011;13760;52.588;13.406;2023-05-21T07:15:37;18.25;;;15.75;;
25962;SDS011;13760;52.588;13.406;2023-05-21T07:18:02;19.58;;;15.88;;
25962;SDS011;13760;52.588;13.406;2023-05-21T07:20:28;16.23;;;14.63;;
25962;SDS011;13760;52.588;13.406;2023-05-21T07:22:53;17.15;;;15.38;;
25962;SDS011;13760;52.588;13.406;2023-05-21T07:25:19;18.30;;;15.60;;
25962;SDS011;13760;52.588;13.406;2023-05-21T07:27:45;18.17;;;15.68;;
25962;SDS011;13760;52.588;13.406;2023-05-21T07:30:10;16.85;;;15.02;;
25962;SDS011;13760;52.588;13.406;2023-05-21T07:32:36;18.40;;;14.68;;
25962;SDS011;13760;52.588;13.406;2023-05-21T07:35:02;16.90;;;15.10;;
25962;SDS011;13760;52.588;13.406;2023-05-21T07:37:28;17.17;;;14.75;;
25962;SDS011;13760;52.588;13.406;2023-05-21T07:39:55;16.58;;;14.27;;
25962;SDS011;13760;52.588;13.406;2023-05-21T07:42:22;19.45;;;14.65;;
25962;SDS011;13760;52.588;13.406;2023-05-21T07:44:48;18.00;;;14.73;;
25962;SDS011;13760;52.588;13.406;2023-05-21T07:47:13;14.95;;;13.45;;
25962;SDS011;13760;52.588;13.406;2023-05-21T07:49:39;17.38;;;13.48;;
25962;SDS011;13760;52.588;13.406;2023-05-21T07:52:05;18.58;;;13.38;;
25962;SDS011;13760;52.588;13.406;2023-05-21T07:54:31;15.25;;;13.27;;
25962;SDS011;13760;52.588;13.406;2023-05-21T07:56:56;17.08;;;13.80;;
25962;SDS011;13760;52.588;13.406;2023-05-21T07:59:23;15.85;;;13.88;;
25962;SDS011;13760;52.588;13.406;2023-05-21T08:01:49;15.52;;;12.25;;
25962;SDS011;13760;52.588;13.406;2023-05-21T08:04:15;15.27;;;12.10;;
25962;SDS011;13760;52.588;13.406;2023-05-21T08:06:41;15.38;;;12.88;;
25962;SDS011;13760;52.588;13.406;2023-05-21T08:09:06;13.13;;;11.75;;
25962;SDS011;13760;52.588;13.406;2023-05-21T08:11:32;13.38;;;11.90;;
25962;SDS011;13760;52.588;13.406;2023-05-21T08:13:57;19.00;;;12.15;;
25962;SDS011;13760;52.588;13.406;2023-05-21T08:16:23;15.55;;;11.75;;
25962;SDS011;13760;52.588;13.406;2023-05-21T08:18:49;12.48;;;11.18;;
25962;SDS011;13760;52.588;13.406;2023-05-21T08:21:15;15.00;;;11.45;;
25962;SDS011;13760;52.588;13.406;2023-05-21T08:23:41;12.55;;;11.35;;
25962;SDS011;13760;52.588;13.406;2023-05-21T08:26:06;13.00;;;11.60;;
25962;SDS011;13760;52.588;13.406;2023-05-21T08:28:32;14.93;;;10.85;;
25962;SDS011;13760;52.588;13.406;2023-05-21T08:30:59;12.95;;;10.77;;
25962;SDS011;13760;52.588;13.406;2023-05-21T08:33:25;19.98;;;11.52;;
25962;SDS011;13760;52.588;13.406;2023-05-21T08:35:51;16.27;;;10.65;;
25962;SDS011;13760;52.588;13.406;2023-05-21T08:38:17;12.13;;;10.75;;
25962;SDS011;13760;52.588;13.406;2023-05-21T08:40:44;12.05;;;10.00;;
25962;SDS011;13760;52.588;13.406;2023-05-21T08:43:15;13.23;;;10.27;;
25962;SDS011;13760;52.588;13.406;2023-05-21T08:45:41;16.80;;;10.60;;
25962;SDS011;13760;52.588;13.406;2023-05-21T08:48:11;16.75;;;10.27;;
25962;SDS011;13760;52.588;13.406;2023-05-21T08:50:40;14.05;;;10.25;;
25962;SDS011;13760;52.588;13.406;2023-05-21T08:53:07;10.27;;;9.27;;
25962;SDS011;13760;52.588;13.406;2023-05-21T08:55:33;16.10;;;9.25;;
25962;SDS011;13760;52.588;13.406;2023-05-21T08:57:59;13.35;;;8.70;;
25962;SDS011;13760;52.588;13.406;2023-05-21T09:00:25;16.45;;;9.18;;
25962;SDS011;13760;52.588;13.406;2023-05-21T09:02:50;13.35;;;8.80;;
25962;SDS011;13760;52.588;13.406;2023-05-21T09:05:18;10.05;;;8.60;;
25962;SDS011;13760;52.588;13.406;2023-05-21T09:10:45;14.77;;;8.90;;
25962;SDS011;13760;52.588;13.406;2023-05-21T09:13:13;12.10;;;8.52;;
25962;SDS011;13760;52.588;13.406;2023-05-21T09:15:41;11.30;;;8.63;;
25962;SDS011;13760;52.588;13.406;2023-05-21T09:18:07;14.10;;;8.27;;
25962;SDS011;13760;52.588;13.406;2023-05-21T09:20:32;11.23;;;9.07;;
25962;SDS011;13760;52.588;13.406;2023-05-21T09:23:02;9.73;;;7.85;;
25962;SDS011;13760;52.588;13.406;2023-05-21T09:25:28;14.55;;;8.80;;
25962;SDS011;13760;52.588;13.406;2023-05-21T09:27:55;10.63;;;8.32;;
25962;SDS011;13760;52.588;13.406;2023-05-21T09:30:20;10.48;;;7.78;;
25962;SDS011;13760;52.588;13.406;2023-05-21T09:32:52;14.05;;;7.93;;
25962;SDS011;13760;52.588;13.406;2023-05-21T09:35:20;8.77;;;7.82;;
25962;SDS011;13760;52.588;13.406;2023-05-21T09:37:46;12.13;;;8.35;;
25962;SDS011;13760;52.588;13.406;2023-05-21T09:40:13;11.52;;;8.40;;
25962;SDS011;13760;52.588;13.406;2023-05-21T09:42:50;14.13;;;8.27;;
25962;SDS011;13760;52.588;13.406;2023-05-21T09:45:17;9.63;;;7.75;;
25962;SDS011;13760;52.588;13.406;2023-05-21T09:47:44;12.43;;;7.35;;
25962;SDS011;13760;52.588;13.406;2023-05-21T09:50:11;11.82;;;7.88;;
25962;SDS011;13760;52.588;13.406;2023-05-21T09:52:38;10.65;;;8.15;;
25962;SDS011;13760;52.588;13.406;2023-05-21T09:55:09;9.05;;;7.38;;
25962;SDS011;13760;52.588;13.406;2023-05-21T09:57:43;9.88;;;8.18;;
25962;SDS011;13760;52.588;13.406;2023-05-21T10:02:50;9.75;;;7.57;;
25962;SDS011;13760;52.588;13.406;2023-05-21T10:05:24;9.50;;;7.00;;
25962;SDS011;13760;52.588;13.406;2023-05-21T10:07:51;8.20;;;7.17;;
25962;SDS011;13760;52.588;13.406;2023-05-21T10:10:20;11.48;;;6.80;;
25962;SDS011;13760;52.588;13.406;2023-05-21T10:12:54;11.00;;;7.57;;
25962;SDS011;13760;52.588;13.406;2023-05-21T10:15:23;8.43;;;7.05;;
25962;SDS011;13760;52.588;13.406;2023-05-21T10:17:50;13.57;;;7.32;;
25962;SDS011;13760;52.588;13.406;2023-05-21T10:20:16;10.07;;;7.20;;
25962;SDS011;13760;52.588;13.406;2023-05-21T10:22:42;12.50;;;7.13;;
25962;SDS011;13760;52.588;13.406;2023-05-21T10:25:08;10.77;;;7.30;;
25962;SDS011;13760;52.588;13.406;2023-05-21T10:27:35;9.13;;;7.60;;
25962;SDS011;13760;52.588;13.406;2023-05-21T10:30:01;11.95;;;7.28;;
25962;SDS011;13760;52.588;13.406;2023-05-21T10:32:29;11.32;;;7.40;;
25962;SDS011;13760;52.588;13.406;2023-05-21T10:34:56;8.25;;;7.35;;
25962;SDS011;13760;52.588;13.406;2023-05-21T10:37:22;12.02;;;7.25;;
25962;SDS011;13760;52.588;13.406;2023-05-21T10:39:52;10.07;;;7.43;;
25962;SDS011;13760;52.588;13.406;2023-05-21T10:47:57;10.18;;;6.63;;
25962;SDS011;13760;52.588;13.406;2023-05-21T10:53:19;11.95;;;6.82;;
25962;SDS011;13760;52.588;13.406;2023-05-21T10:55:58;10.23;;;6.88;;
25962;SDS011;13760;52.588;13.406;2023-05-21T11:01:49;8.75;;;6.47;;
25962;SDS011;13760;52.588;13.406;2023-05-21T11:04:20;12.20;;;6.82;;
25962;SDS011;13760;52.588;13.406;2023-05-21T11:06:46;9.52;;;6.63;;
25962;SDS011;13760;52.588;13.406;2023-05-21T11:09:13;10.98;;;6.50;;
25962;SDS011;13760;52.588;13.406;2023-05-21T11:11:40;10.07;;;6.60;;
25962;SDS011;13760;52.588;13.406;2023-05-21T11:16:59;11.35;;;6.38;;
25962;SDS011;13760;52.588;13.406;2023-05-21T11:19:44;8.38;;;5.95;;
25962;SDS011;13760;52.588;13.406;2023-05-21T11:22:24;8.18;;;6.45;;
25962;SDS011;13760;52.588;13.406;2023-05-21T11:24:51;7.05;;;5.93;;
25962;SDS011;13760;52.588;13.406;2023-05-21T11:30:06;7.78;;;5.97;;
25962;SDS011;13760;52.588;13.406;2023-05-21T11:35:35;9.82;;;6.18;;
25962;SDS011;13760;52.588;13.406;2023-05-21T11:38:10;11.80;;;6.18;;
25962;SDS011;13760;52.588;13.406;2023-05-21T11:40:35;7.75;;;5.55;;
25962;SDS011;13760;52.588;13.406;2023-05-21T11:43:01;7.80;;;5.55;;
25962;SDS011;13760;52.588;13.406;2023-05-21T11:45:27;8.90;;;5.22;;
25962;SDS011;13760;52.588;13.406;2023-05-21T11:47:55;6.85;;;5.50;;
25962;SDS011;13760;52.588;13.406;2023-05-21T11:50:21;9.15;;;5.13;;
25962;SDS011;13760;52.588;13.406;2023-05-21T11:52:47;16.05;;;5.38;;
25962;SDS011;13760;52.588;13.406;2023-05-21T11:55:14;9.13;;;5.18;;
25962;SDS011;13760;52.588;13.406;2023-05-21T11:57:40;6.35;;;4.90;;
25962;SDS011;13760;52.588;13.406;2023-05-21T12:00:11;8.35;;;5.72;;
25962;SDS011;13760;52.588;13.406;2023-05-21T12:03:00;10.13;;;5.22;;
25962;SDS011;13760;52.588;13.406;2023-05-21T12:05:25;11.00;;;6.03;;
25962;SDS011;13760;52.588;13.406;2023-05-21T12:07:51;6.13;;;5.05;;
25962;SDS011;13760;52.588;13.406;2023-05-21T12:10:21;7.50;;;5.47;;
25962;SDS011;13760;52.588;13.406;2023-05-21T12:12:47;9.20;;;5.25;;
25962;SDS011;13760;52.588;13.406;2023-05-21T12:15:15;5.90;;;5.30;;
25962;SDS011;13760;52.588;13.406;2023-05-21T12:17:41;15.85;;;4.57;;
25962;SDS011;13760;52.588;13.406;2023-05-21T12:20:07;7.50;;;4.60;;
25962;SDS011;13760;52.588;13.406;2023-05-21T12:22:34;8.93;;;4.95;;
25962;SDS011;13760;52.588;13.406;2023-05-21T12:25:04;11.23;;;5.32;;
25962;SDS011;13760;52.588;13.406;2023-05-21T12:27:30;7.07;;;5.05;;
25962;SDS011;13760;52.588;13.406;2023-05-21T12:29:55;6.65;;;5.32;;
25962;SDS011;13760;52.588;13.406;2023-05-21T12:32:21;9.00;;;5.03;;
25962;SDS011;13760;52.588;13.406;2023-05-21T12:34:51;11.93;;;4.82;;
25962;SDS011;13760;52.588;13.406;2023-05-21T12:40:00;9.55;;;5.05;;
25962;SDS011;13760;52.588;13.406;2023-05-21T12:42:29;6.15;;;4.95;;
25962;SDS011;13760;52.588;13.406;2023-05-21T12:44:58;6.43;;;5.50;;
25962;SDS011;13760;52.588;13.406;2023-05-21T12:47:26;7.88;;;5.13;;
25962;SDS011;13760;52.588;13.406;2023-05-21T12:49:53;7.07;;;5.25;;
25962;SDS011;13760;52.588;13.406;2023-05-21T12:52:22;7.82;;;5.28;;
25962;SDS011;13760;52.588;13.406;2023-05-21T12:54:49;11.38;;;5.25;;
25962;SDS011;13760;52.588;13.406;2023-05-21T12:57:19;7.25;;;5.25;;
25962;SDS011;13760;52.588;13.406;2023-05-21T12:59:50;8.73;;;5.55;;
25962;SDS011;13760;52.588;13.406;2023-05-21T13:02:24;6.78;;;4.68;;
25962;SDS011;13760;52.588;13.406;2023-05-21T13:04:55;19.30;;;5.38;;
25962;SDS011;13760;52.588;13.406;2023-05-21T13:09:48;5.88;;;4.57;;
25962;SDS011;13760;52.588;13.406;2023-05-21T13:12:16;7.57;;;4.90;;
25962;SDS011;13760;52.588;13.406;2023-05-21T13:14:42;5.57;;;4.68;;
25962;SDS011;13760;52.588;13.406;2023-05-21T13:17:08;8.85;;;5.82;;
25962;SDS011;13760;52.588;13.406;2023-05-21T13:19:33;8.38;;;5.00;;
25962;SDS011;13760;52.588;13.406;2023-05-21T13:21:59;8.82;;;4.88;;
25962;SDS011;13760;52.588;13.406;2023-05-21T13:24:24;7.90;;;4.85;;
25962;SDS011;13760;52.588;13.406;2023-05-21T13:26:50;5.93;;;5.03;;
25962;SDS011;13760;52.588;13.406;2023-05-21T13:29:15;7.85;;;5.50;;
25962;SDS011;13760;52.588;13.406;2023-05-21T13:31:41;5.97;;;5.18;;
25962;SDS011;13760;52.588;13.406;2023-05-21T13:34:07;8.60;;;4.95;;
25962;SDS011;13760;52.588;13.406;2023-05-21T13:36:34;10.88;;;4.90;;
25962;SDS011;13760;52.588;13.406;2023-05-21T13:38:59;6.43;;;5.00;;
25962;SDS011;13760;52.588;13.406;2023-05-21T13:41:25;7.90;;;5.15;;
25962;SDS011;13760;52.588;13.406;2023-05-21T13:43:50;7.47;;;5.05;;
25962;SDS011;13760;52.588;13.406;2023-05-21T13:46:16;9.45;;;4.90;;
25962;SDS011;13760;52.588;13.406;2023-05-21T13:48:41;8.43;;;5.00;;
25962;SDS011;13760;52.588;13.406;2023-05-21T13:51:07;7.18;;;4.80;;
25962;SDS011;13760;52.588;13.406;2023-05-21T13:53:33;7.80;;;4.80;;
25962;SDS011;13760;52.588;13.406;2023-05-21T13:55:58;7.93;;;4.90;;
25962;SDS011;13760;52.588;13.406;2023-05-21T13:58:24;7.35;;;5.30;;
25962;SDS011;13760;52.588;13.406;2023-05-21T14:00:51;6.15;;;5.10;;
25962;SDS011;13760;52.588;13.406;2023-05-21T14:03:17;7.93;;;5.32;;
25962;SDS011;13760;52.588;13.406;2023-05-21T14:05:43;9.13;;;4.93;;
25962;SDS011;13760;52.588;13.406;2023-05-21T14:08:08;5.03;;;4.63;;
25962;SDS011;13760;52.588;13.406;2023-05-21T14:10:34;6.15;;;4.93;;
25962;SDS011;13760;52.588;13.406;2023-05-21T14:12:59;8.32;;;5.05;;
25962;SDS011;13760;52.588;13.406;2023-05-21T14:15:25;6.85;;;4.97;;
25962;SDS011;13760;52.588;13.406;2023-05-21T14:17:51;11.45;;;4.70;;
25962;SDS011;13760;52.588;13.406;2023-05-21T14:20:17;6.60;;;4.47;;
25962;SDS011;13760;52.588;13.406;2023-05-21T14:22:43;8.05;;;4.90;;
25962;SDS011;13760;52.588;13.406;2023-05-21T14:25:08;6.22;;;4.30;;
25962;SDS011;13760;52.588;13.406;2023-05-21T14:27:34;9.07;;;4.53;;
25962;SDS011;13760;52.588;13.406;2023-05-21T14:30:01;6.43;;;4.72;;
25962;SDS011;13760;52.588;13.406;2023-05-21T14:32:27;7.57;;;4.53;;
25962;SDS011;13760;52.588;13.406;2023-05-21T14:34:53;9.60;;;4.68;;
25962;SDS011;13760;52.588;13.406;2023-05-21T14:37:20;7.47;;;4.78;;
25962;SDS011;13760;52.588;13.406;2023-05-21T14:39:46;6.40;;;4.90;;
25962;SDS011;13760;52.588;13.406;2023-05-21T14:42:11;9.65;;;4.63;;
25962;SDS011;13760;52.588;13.406;2023-05-21T14:44:37;6.65;;;4.47;;